createdAt,value
2017-09-01T00:01:00.282Z,2.60
2017-09-01T00:03:29.528Z,2.10
2017-09-01T00:05:58.942Z,2.80
2017-09-01T00:08:28.220Z,2.50
2017-09-01T00:10:57.535Z,2.60
2017-09-01T00:13:26.818Z,3.20
2017-09-01T00:15:56.202Z,2.80
2017-09-01T00:18:25.545Z,2.53
2017-09-01T00:20:54.789Z,3.37
2017-09-01T00:23:24.340Z,3.50
2017-09-01T00:25:53.602Z,3.47
2017-09-01T00:28:22.968Z,2.73
2017-09-01T00:30:52.227Z,3.83
2017-09-01T00:33:21.478Z,3.50
2017-09-01T00:35:50.878Z,3.60
2017-09-01T00:38:20.859Z,2.60
2017-09-01T00:40:50.297Z,3.37
2017-09-01T00:43:19.517Z,3.03
2017-09-01T00:45:48.762Z,3.27
2017-09-01T00:48:18.095Z,3.17
2017-09-01T00:50:47.479Z,4.00
2017-09-01T00:53:16.732Z,3.43
2017-09-01T00:55:45.985Z,4.10
2017-09-01T00:58:15.298Z,3.40
2017-09-01T01:00:44.550Z,3.73
2017-09-01T01:03:13.985Z,4.10
2017-09-01T01:05:43.261Z,4.77
2017-09-01T01:08:12.526Z,3.90
2017-09-01T01:10:41.796Z,4.07
2017-09-01T01:13:11.051Z,4.27
2017-09-01T01:15:40.339Z,4.43
2017-09-01T01:18:09.605Z,4.20
2017-09-01T01:20:38.851Z,3.63
2017-09-01T01:23:08.382Z,4.00
2017-09-01T01:25:37.626Z,3.97
2017-09-01T01:28:06.921Z,3.90
2017-09-01T01:30:36.206Z,4.37
2017-09-01T01:33:05.608Z,3.90
2017-09-01T01:35:34.906Z,3.77
2017-09-01T01:38:04.946Z,4.13
2017-09-01T01:40:34.223Z,4.90
2017-09-01T01:43:03.481Z,4.13
2017-09-01T01:45:33.423Z,4.53
2017-09-01T01:48:02.753Z,4.10
2017-09-01T01:50:32.022Z,4.13
2017-09-01T01:53:01.453Z,4.57
2017-09-01T01:55:30.726Z,4.43
2017-09-01T01:58:00.056Z,4.50
2017-09-01T02:00:29.458Z,4.83
2017-09-01T02:02:58.724Z,3.57
2017-09-01T02:05:27.971Z,4.63
2017-09-01T02:07:57.970Z,4.30
2017-09-01T02:10:27.292Z,4.67
2017-09-01T02:12:56.534Z,4.07
2017-09-01T02:15:25.805Z,4.40
2017-09-01T02:17:55.057Z,5.10
2017-09-01T02:20:24.326Z,4.40
2017-09-01T02:22:53.601Z,4.57
2017-09-01T02:25:22.904Z,4.97
2017-09-01T02:27:52.507Z,5.30
2017-09-01T02:30:22.611Z,4.83
2017-09-01T02:32:52.489Z,5.30
2017-09-01T02:35:21.830Z,4.60
2017-09-01T02:37:51.162Z,5.40
2017-09-01T02:40:20.647Z,6.00
2017-09-01T02:42:49.866Z,4.33
2017-09-01T02:45:19.202Z,4.60
2017-09-01T02:47:48.450Z,4.90
2017-09-01T02:50:17.865Z,5.20
2017-09-01T02:52:47.130Z,4.57
2017-09-01T02:55:16.382Z,5.10
2017-09-01T02:57:45.684Z,5.10
2017-09-01T03:00:15.072Z,5.10
2017-09-01T03:02:44.338Z,5.80
2017-09-01T03:05:13.629Z,5.87
2017-09-01T03:07:42.875Z,6.10
2017-09-01T03:10:12.156Z,5.50
2017-09-01T03:12:41.409Z,5.03
2017-09-01T03:15:10.858Z,6.20
2017-09-01T03:17:40.109Z,5.23
2017-09-01T03:20:09.386Z,5.50
2017-09-01T03:22:38.691Z,5.60
2017-09-01T03:25:07.948Z,6.10
2017-09-01T03:27:37.375Z,5.70
2017-09-01T03:30:07.576Z,6.00
2017-09-01T03:32:36.849Z,5.70
2017-09-01T03:35:06.506Z,5.80
2017-09-01T03:37:36.550Z,5.57
2017-09-01T03:40:05.805Z,5.90
2017-09-01T03:42:35.065Z,6.90
2017-09-01T03:45:04.359Z,6.80
2017-09-01T03:47:33.619Z,5.50
2017-09-01T03:50:02.907Z,6.83
2017-09-01T03:52:32.157Z,6.17
2017-09-01T03:55:01.438Z,5.57
2017-09-01T03:57:30.826Z,5.30
2017-09-01T04:00:00.098Z,6.23
2017-09-01T04:02:29.346Z,5.90
2017-09-01T04:04:58.640Z,5.23
2017-09-01T04:07:27.930Z,5.60
2017-09-01T04:09:57.208Z,5.73
2017-09-01T04:12:26.482Z,5.67
2017-09-01T04:14:55.742Z,5.40
2017-09-01T04:17:24.991Z,5.10
2017-09-01T04:19:54.535Z,5.20
2017-09-01T04:22:23.787Z,5.83
2017-09-01T04:24:53.069Z,5.63
2017-09-01T04:27:22.482Z,5.03
2017-09-01T04:29:51.787Z,5.37
2017-09-01T04:32:21.052Z,5.67
2017-09-01T04:34:50.296Z,5.40
2017-09-01T04:37:19.566Z,4.83
2017-09-01T04:39:48.818Z,6.80
2017-09-01T04:42:18.253Z,5.00
2017-09-01T04:44:47.562Z,5.50
2017-09-01T04:47:17.581Z,5.60
2017-09-01T04:49:46.843Z,5.43
2017-09-01T04:52:16.071Z,5.03
2017-09-01T04:54:45.971Z,5.70
2017-09-01T04:57:15.207Z,5.33
2017-09-01T04:59:44.625Z,5.40
2017-09-01T05:02:13.879Z,5.20
2017-09-01T05:04:43.315Z,5.37
2017-09-01T05:07:12.622Z,4.40
2017-09-01T05:09:41.879Z,6.07
2017-09-01T05:12:11.142Z,4.73
2017-09-01T05:14:41.378Z,5.20
2017-09-01T05:17:10.603Z,7.70
2017-09-01T05:19:40.083Z,4.87
2017-09-01T05:22:09.375Z,5.10
2017-09-01T05:24:38.660Z,5.07
2017-09-01T05:27:07.939Z,5.67
2017-09-01T05:29:37.196Z,5.83
2017-09-01T05:32:06.748Z,6.20
2017-09-01T05:34:36.056Z,5.57
2017-09-01T05:37:05.310Z,5.90
2017-09-01T05:39:34.561Z,5.33
2017-09-01T05:42:03.856Z,5.03
2017-09-01T05:44:33.119Z,5.23
2017-09-01T05:47:02.595Z,5.03
2017-09-01T05:49:31.848Z,6.00
2017-09-01T05:52:01.180Z,4.70
2017-09-01T05:54:31.215Z,4.90
2017-09-01T05:57:00.468Z,5.00
2017-09-01T05:59:29.717Z,5.27
2017-09-01T06:01:58.965Z,5.10
2017-09-01T06:04:28.250Z,5.40
2017-09-01T06:06:57.491Z,5.30
2017-09-01T06:09:26.738Z,5.63
2017-09-01T06:11:55.999Z,5.20
2017-09-01T06:14:25.266Z,4.50
2017-09-01T06:16:54.539Z,5.17
2017-09-01T06:19:23.778Z,4.63
2017-09-01T06:21:53.027Z,4.03
2017-09-01T06:24:22.335Z,3.60
2017-09-01T06:26:51.636Z,3.30
2017-09-01T06:29:20.890Z,3.77
2017-09-01T06:31:50.152Z,3.53
2017-09-01T06:34:19.418Z,3.10
2017-09-01T06:36:49.601Z,2.80
2017-09-01T06:39:18.862Z,3.07
2017-09-01T06:41:48.133Z,2.57
2017-09-01T06:44:17.545Z,2.33
2017-09-01T06:46:47.555Z,2.30
2017-09-01T06:49:16.828Z,2.20
2017-09-01T06:51:46.085Z,2.17
2017-09-01T06:54:15.395Z,2.03
2017-09-01T06:56:44.971Z,2.13
2017-09-01T06:59:14.298Z,1.70
2017-09-01T07:01:43.554Z,2.13
2017-09-01T07:04:12.806Z,1.90
2017-09-01T07:06:42.045Z,1.57
2017-09-01T07:09:11.410Z,1.87
2017-09-01T07:11:40.656Z,2.30
2017-09-01T07:14:09.929Z,2.03
2017-09-01T07:16:39.310Z,1.90
2017-09-01T07:19:08.613Z,1.80
2017-09-01T07:21:37.857Z,1.93
2017-09-01T07:24:07.133Z,2.03
2017-09-01T07:26:36.483Z,2.33
2017-09-01T07:29:05.749Z,3.13
2017-09-01T07:31:34.995Z,2.20
2017-09-01T07:34:05.001Z,3.00
2017-09-01T07:36:34.310Z,4.40
2017-09-01T07:39:03.564Z,5.07
2017-09-01T07:41:32.831Z,5.73
2017-09-01T07:44:02.071Z,4.53
2017-09-01T07:46:31.315Z,5.30
2017-09-01T07:49:00.590Z,4.53
2017-09-01T07:51:29.839Z,4.97
2017-09-01T07:53:59.110Z,4.80
2017-09-01T07:56:28.519Z,5.50
2017-09-01T07:58:57.813Z,5.40
2017-09-01T08:01:27.087Z,5.33
2017-09-01T08:03:56.356Z,5.40
2017-09-01T08:06:25.643Z,5.30
2017-09-01T08:08:54.920Z,5.87
2017-09-01T08:11:24.247Z,5.03
2017-09-01T08:13:53.519Z,5.73
2017-09-01T08:16:22.922Z,5.37
2017-09-01T08:18:52.230Z,5.50
2017-09-01T08:21:21.470Z,5.50
2017-09-01T08:23:50.739Z,4.90
2017-09-01T08:26:19.978Z,5.67
2017-09-01T08:28:49.260Z,5.53
2017-09-01T08:31:18.725Z,6.37
2017-09-01T08:33:48.128Z,5.27
2017-09-01T08:36:17.421Z,6.50
2017-09-01T08:38:46.672Z,5.30
2017-09-01T08:41:16.085Z,5.10
2017-09-01T08:43:45.404Z,4.60
2017-09-01T08:46:14.657Z,4.10
2017-09-01T08:48:44.713Z,4.97
2017-09-01T08:51:14.213Z,5.37
2017-09-01T08:53:43.604Z,4.10
2017-09-01T08:56:13.214Z,4.17
2017-09-01T08:58:42.489Z,2.77
2017-09-01T09:01:11.816Z,3.77
2017-09-01T09:03:41.047Z,2.70
2017-09-01T09:06:10.314Z,3.43
2017-09-01T09:08:39.658Z,2.90
2017-09-01T09:11:08.917Z,3.83
2017-09-01T09:13:38.237Z,6.00
2017-09-01T09:16:07.578Z,3.57
2017-09-01T09:18:37.117Z,5.53
2017-09-01T09:21:06.416Z,5.43
2017-09-01T09:23:35.662Z,5.37
2017-09-01T09:26:04.927Z,5.47
2017-09-01T09:28:34.186Z,5.60
2017-09-01T09:31:03.534Z,5.93
2017-09-01T09:33:32.762Z,5.10
2017-09-01T09:36:02.034Z,5.23
2017-09-01T09:38:31.295Z,6.27
2017-09-01T09:41:00.671Z,5.03
2017-09-01T09:43:29.995Z,5.10
2017-09-01T09:45:59.254Z,4.13
2017-09-01T09:48:28.530Z,4.20
2017-09-01T09:50:57.931Z,4.40
2017-09-01T09:53:27.199Z,4.40
2017-09-01T09:55:56.483Z,4.67
2017-09-01T09:58:25.730Z,3.20
2017-09-01T10:00:55.015Z,3.70
2017-09-01T10:03:24.267Z,3.80
2017-09-01T10:05:53.656Z,3.80
2017-09-01T10:08:23.038Z,3.43
2017-09-01T10:10:52.331Z,4.50
2017-09-01T10:13:21.556Z,5.30
2017-09-01T10:15:50.945Z,3.93
2017-09-01T10:18:20.443Z,3.43
2017-09-01T10:20:49.695Z,4.13
2017-09-01T10:23:18.974Z,6.60
2017-09-01T10:25:48.227Z,5.80
2017-09-01T10:28:18.805Z,6.27
2017-09-01T10:30:48.108Z,5.07
2017-09-01T10:33:17.916Z,6.10
2017-09-01T10:35:47.142Z,5.70
2017-09-01T10:38:16.406Z,5.53
2017-09-01T10:40:45.795Z,4.40
2017-09-01T10:43:15.051Z,5.40
2017-09-01T10:45:44.894Z,4.73
2017-09-01T10:48:31.966Z,4.33
2017-09-01T10:51:18.818Z,4.30
2017-09-01T10:57:10.185Z,3.83
2017-09-01T10:59:39.453Z,2.77
2017-09-01T11:02:08.712Z,3.50
2017-09-01T11:04:37.955Z,3.63
2017-09-01T11:07:07.351Z,3.70
2017-09-01T11:09:36.617Z,2.97
2017-09-01T11:12:05.886Z,3.33
2017-09-01T11:14:35.134Z,2.30
2017-09-01T11:17:04.373Z,2.37
2017-09-01T11:19:38.957Z,3.17
2017-09-01T11:22:13.844Z,3.27
2017-09-01T11:24:43.109Z,2.70
2017-09-01T11:27:12.463Z,3.27
2017-09-01T11:29:41.728Z,2.47
2017-09-01T11:32:11.169Z,2.60
2017-09-01T11:34:40.677Z,2.47
2017-09-01T11:37:09.943Z,2.03
2017-09-01T11:39:39.208Z,2.70
2017-09-01T11:42:08.457Z,2.30
2017-09-01T11:44:37.703Z,3.17
2017-09-01T11:47:06.975Z,2.80
2017-09-01T11:49:36.226Z,2.80
2017-09-01T11:52:05.706Z,2.10
2017-09-01T11:54:34.970Z,2.37
2017-09-01T11:57:04.236Z,2.00
2017-09-01T11:59:33.686Z,3.43
2017-09-01T12:02:02.937Z,2.37
2017-09-01T12:04:32.179Z,2.13
2017-09-01T12:07:01.587Z,2.70
2017-09-01T12:09:30.843Z,2.63
2017-09-01T12:12:00.097Z,3.70
2017-09-01T12:14:29.362Z,3.70
2017-09-01T12:16:58.611Z,4.20
2017-09-01T12:19:27.862Z,3.97
2017-09-01T12:21:57.244Z,2.60
2017-09-01T12:24:26.502Z,3.40
2017-09-01T12:26:55.759Z,3.87
2017-09-01T12:29:25.117Z,3.43
2017-09-01T12:31:54.390Z,3.80
2017-09-01T12:34:23.708Z,3.37
2017-09-01T12:36:53.078Z,2.93
2017-09-01T12:39:22.368Z,2.83
2017-09-01T12:41:51.636Z,3.27
2017-09-01T12:44:21.007Z,3.27
2017-09-01T12:46:50.278Z,3.30
2017-09-01T12:49:19.531Z,3.30
2017-09-01T12:51:48.838Z,3.00
2017-09-01T12:54:18.146Z,3.03
2017-09-01T12:56:47.620Z,4.37
2017-09-01T12:59:16.871Z,3.13
2017-09-01T13:01:46.141Z,2.90
2017-09-01T13:04:15.520Z,2.97
2017-09-01T13:06:44.772Z,3.00
2017-09-01T13:09:14.224Z,3.47
2017-09-01T13:11:43.493Z,2.50
2017-09-01T13:14:12.759Z,2.83
2017-09-01T13:16:41.995Z,2.67
2017-09-01T13:19:11.290Z,2.77
2017-09-01T13:21:40.554Z,2.63
2017-09-01T13:24:09.853Z,3.00
2017-09-01T13:26:39.121Z,2.87
2017-09-01T13:29:08.379Z,2.67
2017-09-01T13:31:37.633Z,2.30
2017-09-01T13:34:06.930Z,2.00
2017-09-01T13:36:36.178Z,2.30
2017-09-01T13:39:05.626Z,2.30
2017-09-01T13:41:34.917Z,2.00
2017-09-01T13:44:04.176Z,2.67
2017-09-01T13:46:33.434Z,2.77
2017-09-01T13:49:02.681Z,2.20
2017-09-01T13:51:32.011Z,1.63
2017-09-01T13:54:01.254Z,2.20
2017-09-01T13:56:30.521Z,2.33
2017-09-01T13:58:59.783Z,2.00
2017-09-01T14:01:29.041Z,1.73
2017-09-01T14:03:58.359Z,2.13
2017-09-01T14:06:27.863Z,1.93
2017-09-01T14:08:57.898Z,2.30
2017-09-01T14:11:27.158Z,2.30
2017-09-01T14:13:56.405Z,2.30
2017-09-01T14:16:25.724Z,2.50
2017-09-01T14:18:54.984Z,2.10
2017-09-01T14:21:24.213Z,1.90
2017-09-01T14:23:53.478Z,3.37
2017-09-01T14:26:22.726Z,2.73
2017-09-01T14:28:52.036Z,2.03
2017-09-01T14:31:21.303Z,2.53
2017-09-01T14:33:50.770Z,1.80
2017-09-01T14:36:20.098Z,2.43
2017-09-01T14:38:49.411Z,1.70
2017-09-01T14:41:18.664Z,2.00
2017-09-01T14:43:47.936Z,2.13
2017-09-01T14:46:17.303Z,1.40
2017-09-01T14:48:46.719Z,1.67
2017-09-01T14:51:15.951Z,1.80
2017-09-01T14:53:45.210Z,1.77
2017-09-01T14:56:14.509Z,1.40
2017-09-01T14:58:43.800Z,1.70
2017-09-01T15:01:13.033Z,1.80
2017-09-01T15:03:42.292Z,1.30
2017-09-01T15:06:11.577Z,1.27
2017-09-01T15:08:40.825Z,1.50
2017-09-01T15:11:10.110Z,1.40
2017-09-01T15:13:39.453Z,2.10
2017-09-01T15:16:08.823Z,2.20
2017-09-01T15:18:38.188Z,1.40
2017-09-01T15:21:07.422Z,1.37
2017-09-01T15:23:36.732Z,1.70
2017-09-01T15:26:05.970Z,1.60
2017-09-01T15:28:35.445Z,1.77
2017-09-01T15:31:04.699Z,1.70
2017-09-01T15:33:33.941Z,2.13
2017-09-01T15:36:03.216Z,2.80
2017-09-01T15:38:32.630Z,2.37
2017-09-01T15:41:01.879Z,2.80
2017-09-01T15:43:31.250Z,1.43
2017-09-01T15:46:00.552Z,1.73
2017-09-01T15:48:29.885Z,1.43
2017-09-01T15:50:59.144Z,1.50
2017-09-01T15:53:28.458Z,1.40
2017-09-01T15:55:57.763Z,1.50
2017-09-01T15:58:27.179Z,1.47
2017-09-01T16:00:56.415Z,1.77
2017-09-01T16:03:25.679Z,1.83
2017-09-01T16:05:54.967Z,1.33
2017-09-01T16:08:24.986Z,2.13
2017-09-01T16:10:54.222Z,2.10
2017-09-01T16:13:23.580Z,3.37
2017-09-01T16:15:52.796Z,2.27
2017-09-01T16:18:22.117Z,1.87
2017-09-01T16:20:51.358Z,1.90
2017-09-01T16:23:20.674Z,2.83
2017-09-01T16:25:49.949Z,2.03
2017-09-01T16:28:19.201Z,2.83
2017-09-01T16:30:48.463Z,2.40
2017-09-01T16:33:17.770Z,2.30
2017-09-01T16:35:47.042Z,2.20
2017-09-01T16:38:16.480Z,1.80
2017-09-01T16:40:46.510Z,1.83
2017-09-01T16:43:15.776Z,2.13
2017-09-01T16:45:45.038Z,2.50
2017-09-01T16:48:14.337Z,1.97
2017-09-01T16:50:43.615Z,2.40
2017-09-01T16:53:13.642Z,2.67
2017-09-01T16:55:42.961Z,1.97
2017-09-01T16:58:12.263Z,2.10
2017-09-01T17:00:41.514Z,2.20
2017-09-01T17:03:10.930Z,2.50
2017-09-01T17:05:40.287Z,2.37
2017-09-01T17:08:09.728Z,2.03
2017-09-01T17:10:39.363Z,1.90
2017-09-01T17:13:08.614Z,2.10
2017-09-01T17:15:37.873Z,2.60
2017-09-01T17:18:07.170Z,3.50
2017-09-01T17:20:36.572Z,2.00
2017-09-01T17:23:05.868Z,2.43
2017-09-01T17:25:35.122Z,3.37
2017-09-01T17:28:04.401Z,4.20
2017-09-01T17:30:34.287Z,3.17
2017-09-01T17:33:03.545Z,2.10
2017-09-01T17:35:32.858Z,2.30
2017-09-01T17:38:02.567Z,2.60
2017-09-01T17:40:31.854Z,2.43
2017-09-01T17:43:01.151Z,3.53
2017-09-01T17:45:30.405Z,2.73
2017-09-01T17:47:59.667Z,3.20
2017-09-01T17:50:28.946Z,2.70
2017-09-01T17:52:58.179Z,3.07
2017-09-01T17:55:27.458Z,2.90
2017-09-01T17:57:56.718Z,3.47
2017-09-01T18:00:26.121Z,4.03
2017-09-01T18:02:55.415Z,3.50
2017-09-01T18:05:24.807Z,3.10
2017-09-01T18:07:54.081Z,2.93
2017-09-01T18:10:23.347Z,2.70
2017-09-01T18:12:52.723Z,2.90
2017-09-01T18:15:21.990Z,2.77
2017-09-01T18:17:51.239Z,2.50
2017-09-01T18:20:20.627Z,2.90
2017-09-01T18:22:49.870Z,2.63
2017-09-01T18:25:19.110Z,2.80
2017-09-01T18:27:48.482Z,3.10
2017-09-01T18:30:17.759Z,2.50
2017-09-01T18:32:47.139Z,3.20
2017-09-01T18:35:16.394Z,2.47
2017-09-01T18:37:45.654Z,2.57
2017-09-01T18:40:14.956Z,3.30
2017-09-01T18:42:44.206Z,2.50
2017-09-01T18:45:13.553Z,3.00
2017-09-01T18:47:42.790Z,2.43
2017-09-01T18:50:12.173Z,2.13
2017-09-01T18:52:41.402Z,2.80
2017-09-01T18:55:10.685Z,2.50
2017-09-01T18:57:39.978Z,2.80
2017-09-01T19:00:09.246Z,2.33
2017-09-01T19:02:38.526Z,2.70
2017-09-01T19:05:07.782Z,2.27
2017-09-01T19:07:37.424Z,2.20
2017-09-01T19:10:06.709Z,2.50
2017-09-01T19:12:36.939Z,2.13
2017-09-01T19:15:09.706Z,2.43
2017-09-01T19:17:39.095Z,2.30
2017-09-01T19:20:08.349Z,2.50
2017-09-01T19:22:37.610Z,2.53
2017-09-01T19:25:07.520Z,2.20
2017-09-01T19:27:36.753Z,2.07
2017-09-01T19:30:06.027Z,1.97
2017-09-01T19:32:35.285Z,2.40
2017-09-01T19:35:04.605Z,2.20
2017-09-01T19:37:33.886Z,2.87
2017-09-01T19:40:03.186Z,2.63
2017-09-01T19:42:32.492Z,2.70
2017-09-01T19:45:01.747Z,2.67
2017-09-01T19:47:31.200Z,2.73
2017-09-01T19:50:00.478Z,2.23
2017-09-01T19:52:29.844Z,2.90
2017-09-01T19:54:59.137Z,2.40
2017-09-01T19:57:28.400Z,2.37
2017-09-01T19:59:57.658Z,2.23
2017-09-01T20:02:27.291Z,2.37
2017-09-01T20:04:56.547Z,2.33
2017-09-01T20:07:25.819Z,2.53
2017-09-01T20:09:56.047Z,3.10
2017-09-01T20:12:25.425Z,2.50
2017-09-01T20:14:54.687Z,2.50
2017-09-01T20:17:23.971Z,2.67
2017-09-01T20:19:53.354Z,2.80
2017-09-01T20:22:22.646Z,2.77
2017-09-01T20:24:51.881Z,2.27
2017-09-01T20:27:21.247Z,2.30
2017-09-01T20:29:50.498Z,2.60
2017-09-01T20:32:19.847Z,12.73
2017-09-01T20:34:49.099Z,3.33
2017-09-01T20:37:18.362Z,2.40
2017-09-01T20:39:48.526Z,2.70
2017-09-01T20:42:17.852Z,2.23
2017-09-01T20:44:47.338Z,2.43
2017-09-01T20:47:16.584Z,2.90
2017-09-01T20:49:45.923Z,2.53
2017-09-01T20:52:15.247Z,2.60
2017-09-01T20:54:45.302Z,2.43
2017-09-01T20:57:14.634Z,2.53
2017-09-01T20:59:44.138Z,2.67
2017-09-01T21:02:13.466Z,2.50
2017-09-01T21:04:43.091Z,3.40
2017-09-01T21:07:12.527Z,2.90
2017-09-01T21:09:42.143Z,3.20
2017-09-01T21:12:11.411Z,3.27
2017-09-01T21:14:40.665Z,3.30
2017-09-01T21:17:09.963Z,3.30
2017-09-01T21:19:39.205Z,2.60
2017-09-01T21:22:08.506Z,2.63
2017-09-01T21:24:37.753Z,2.50
2017-09-01T21:27:07.059Z,2.63
2017-09-01T21:29:36.316Z,2.50
2017-09-01T21:32:05.648Z,3.40
2017-09-01T21:34:34.935Z,2.27
2017-09-01T21:37:04.219Z,3.57
2017-09-01T21:39:33.559Z,3.07
2017-09-01T21:42:02.805Z,3.07
2017-09-01T21:44:32.058Z,2.70
2017-09-01T21:47:01.699Z,3.30
2017-09-01T21:49:31.109Z,2.60
2017-09-01T21:52:00.728Z,3.13
2017-09-01T21:54:30.135Z,2.83
2017-09-01T21:56:59.408Z,2.60
2017-09-01T21:59:28.652Z,6.20
2017-09-01T22:01:57.933Z,3.90
2017-09-01T22:04:27.223Z,3.50
2017-09-01T22:06:56.467Z,2.50
2017-09-01T22:09:25.738Z,2.47
2017-09-01T22:11:55.110Z,2.57
2017-09-01T22:14:24.347Z,2.60
2017-09-01T22:16:53.614Z,3.03
2017-09-01T22:19:25.746Z,2.93
2017-09-01T22:21:55.128Z,2.73
2017-09-01T22:24:24.362Z,2.73
2017-09-01T22:26:53.650Z,2.90
2017-09-01T22:29:22.915Z,2.63
2017-09-01T22:31:52.489Z,3.37
2017-09-01T22:34:21.804Z,2.37
2017-09-01T22:36:51.063Z,2.43
2017-09-01T22:39:20.314Z,2.90
2017-09-01T22:41:49.585Z,2.40
2017-09-01T22:44:18.827Z,2.93
2017-09-01T22:46:48.108Z,2.93
2017-09-01T22:49:17.378Z,2.57
2017-09-01T22:51:46.837Z,4.20
2017-09-01T22:54:16.094Z,2.17
2017-09-01T22:56:45.395Z,3.00
2017-09-01T22:59:14.681Z,2.73
2017-09-01T23:01:43.919Z,3.40
2017-09-01T23:04:13.206Z,2.57
2017-09-01T23:06:42.466Z,2.73
2017-09-01T23:09:11.735Z,2.57
2017-09-01T23:11:41.478Z,2.80
2017-09-01T23:14:10.743Z,2.47
2017-09-01T23:16:39.999Z,2.80
2017-09-01T23:19:09.341Z,2.60
2017-09-01T23:21:38.828Z,2.67
2017-09-01T23:24:08.091Z,2.70
2017-09-01T23:26:37.350Z,2.23
2017-09-01T23:29:06.599Z,2.47
2017-09-01T23:31:35.869Z,2.53
2017-09-01T23:34:05.117Z,2.67
2017-09-01T23:36:34.380Z,2.60
2017-09-01T23:39:03.664Z,3.10
2017-09-01T23:41:33.597Z,3.10
2017-09-01T23:44:02.958Z,2.73
2017-09-01T23:46:33.095Z,2.60
2017-09-01T23:49:02.372Z,3.20
2017-09-01T23:51:31.693Z,3.00
2017-09-01T23:54:01.006Z,3.00
2017-09-01T23:56:30.266Z,3.10
2017-09-01T23:58:59.545Z,2.43
